Cherry Brook, Massachusetts
Current Conditions -  °F | °C
As of 5:42 AM on Thursday 23 Oct 2014 (Local Time) from KBED Reporting Station
Moderate Rain Moderate Rain  
Wind Chill: 44°   Ceiling: 800
Heat Index: 48°   Visibility: 3mi
Dew Point: 47°   Wind: 8mph
Humidity: 96%   Direction: 360°N
Pressure: 29.73"   Gusts: NA
Location:  42.359°N, 71.3°W
Report Text: KBED 230942Z AUTO 36007KT 3SM RA BR BKN008 OVC014 09/08 A2973 RMK AO2 P0011 T00890083 TSNO
Loading
Personal Weather Stations






























Interactive Weather Map
Tropical Storm Tracking
New forecast layout! Learn more

10-Day Weather Forecast

Advertisements
Track Severe Weather on mobile